Time;durP1;ratioP1;P1;durP2;ratioP2;P2;SDS_P1;SDS_P2;PMS_P1;PMS_P2;Temp;Humidity;BMP_temperature;BMP_pressure;BME280_temperature;BME280_humidity;BME280_pressure;Samples;Min_cycle;Max_cycle;Signal;HPM_P1;HPM_P2
2023/06/16 00:00:19;;;;;;;;;11.00;11.00;;;;;26.32;34.21;101125.22;2088996;28;46224;-63
2023/06/16 00:01:22;;;;;;;;;13.40;12.60;;;;;26.34;34.03;101122.38;2088280;28;46493;-64
2023/06/16 00:02:23;;;;;;;;;12.00;11.80;;;;;26.36;33.68;101124.00;2087083;28;45347;-61
2023/06/16 00:03:23;;;;;;;;;14.00;14.00;;;;;26.38;33.53;101118.44;2089258;28;45471;-63
2023/06/16 00:04:25;;;;;;;;;11.75;11.75;;;;;26.38;33.71;101124.75;2088004;28;46404;-64
2023/06/16 00:05:28;;;;;;;;;13.20;12.20;;;;;26.38;33.79;101130.19;2090640;28;46638;-63
2023/06/16 00:06:29;;;;;;;;;13.60;11.40;;;;;26.38;33.55;101127.47;2088044;28;45457;-62
2023/06/16 00:07:33;;;;;;;;;10.00;10.00;;;;;26.39;33.98;101122.88;2087835;28;45922;-64
2023/06/16 00:08:33;;;;;;;;;12.00;12.00;;;;;26.34;33.73;101128.69;2088258;28;46743;-62
2023/06/16 00:09:33;;;;;;;;;14.25;12.25;;;;;26.33;33.60;101126.97;2086742;28;46928;-63
2023/06/16 00:10:34;;;;;;;;;12.75;12.25;;;;;26.32;34.06;101129.81;2087986;28;46470;-63
2023/06/16 00:11:34;;;;;;;;;11.25;10.00;;;;;26.30;33.71;101123.63;2087346;28;44961;-63
2023/06/16 00:12:36;;;;;;;;;11.25;11.25;;;;;26.30;34.29;101123.63;2096787;28;46013;-64
2023/06/16 00:13:36;;;;;;;;;12.00;12.00;;;;;26.29;33.84;101130.91;2088468;28;45605;-62
2023/06/16 00:14:36;;;;;;;;;10.00;10.00;;;;;26.26;33.85;101130.28;2085477;28;46930;-63
2023/06/16 00:15:37;;;;;;;;;12.75;12.75;;;;;26.22;34.05;101124.25;2086627;28;46648;-64
2023/06/16 00:16:37;;;;;;;;;11.00;10.75;;;;;26.20;34.06;101133.53;2088465;28;45898;-63
2023/06/16 00:17:44;;;;;;;;;11.50;11.50;;;;;26.17;33.97;101131.03;2086551;28;45856;-62
2023/06/16 00:18:44;;;;;;;;;13.20;12.80;;;;;26.16;34.13;101138.31;2087360;28;45574;-63
2023/06/16 00:19:45;;;;;;;;;12.75;12.50;;;;;26.14;34.20;101134.00;2087081;28;46222;-64
2023/06/16 00:20:45;;;;;;;;;7.75;7.75;;;;;26.11;34.60;101135.13;2087466;28;45532;-63
2023/06/16 00:21:48;;;;;;;;;12.25;10.75;;;;;26.09;34.62;101139.81;2086902;28;46279;-61
2023/06/16 00:22:48;;;;;;;;;12.80;12.20;;;;;26.08;34.83;101138.09;2088610;28;46366;-62
2023/06/16 00:23:49;;;;;;;;;11.75;11.75;;;;;26.08;34.77;101135.38;2086847;28;47103;-61
2023/06/16 00:24:49;;;;;;;;;12.00;12.00;;;;;26.08;34.23;101138.09;2088939;28;45627;-61
2023/06/16 00:25:50;;;;;;;;;14.00;11.75;;;;;26.08;34.68;101136.22;2087218;28;45619;-63
2023/06/16 00:26:50;;;;;;;;;11.75;11.75;;;;;26.09;34.40;101135.25;2089178;28;46484;-63
2023/06/16 00:27:50;;;;;;;;;10.00;10.00;;;;;26.11;35.15;101135.13;2086099;28;47644;-64
2023/06/16 00:28:51;;;;;;;;;15.00;13.50;;;;;26.12;34.44;101139.56;2087557;28;45889;-62
2023/06/16 00:29:51;;;;;;;;;14.50;14.50;;;;;26.12;34.37;101139.56;2087294;28;46029;-63
2023/06/16 00:30:51;;;;;;;;;11.00;11.00;;;;;26.13;34.58;101135.84;2088834;28;45498;-64
2023/06/16 00:31:52;;;;;;;;;10.50;10.50;;;;;26.14;34.60;101134.00;2086509;28;46742;-64
2023/06/16 00:32:52;;;;;;;;;10.00;10.00;;;;;26.15;34.49;101138.44;2088486;28;46032;-63
2023/06/16 00:33:53;;;;;;;;;11.00;11.00;;;;;26.16;34.67;101134.72;2087329;28;45429;-62
2023/06/16 00:34:53;;;;;;;;;13.40;13.00;;;;;26.16;34.43;101132.00;2089091;28;45247;-63
2023/06/16 00:35:54;;;;;;;;;10.75;10.75;;;;;26.16;34.71;101134.72;2087682;28;45782;-64
2023/06/16 00:36:55;;;;;;;;;15.75;15.75;;;;;26.16;34.52;101132.00;2088031;28;46773;-62
2023/06/16 00:37:56;;;;;;;;;12.00;12.00;;;;;26.15;34.66;101133.00;2102677;27;45789;-63
2023/06/16 00:38:56;;;;;;;;;18.25;16.75;;;;;26.13;34.68;101140.44;2104352;28;46377;-62
2023/06/16 00:39:56;;;;;;;;;12.25;12.00;;;;;26.11;35.08;101135.97;2086337;28;45663;-62
2023/06/16 00:40:56;;;;;;;;;12.00;12.00;;;;;26.11;34.34;101130.53;2088732;28;45337;-63
2023/06/16 00:41:57;;;;;;;;;11.00;10.50;;;;;26.10;34.95;101136.97;2087019;28;46226;-64
2023/06/16 00:43:01;;;;;;;;;14.75;14.75;;;;;26.10;35.23;101133.38;2088620;28;45489;-63
2023/06/16 00:44:03;;;;;;;;;13.60;13.60;;;;;26.09;34.94;101126.22;2086922;28;45609;-62
2023/06/16 00:45:04;;;;;;;;;12.40;12.40;;;;;26.07;35.10;101139.94;2089207;28;46184;-63
2023/06/16 00:46:05;;;;;;;;;14.00;14.00;;;;;26.06;34.63;101130.06;2095915;28;46477;-63
2023/06/16 00:47:06;;;;;;;;;17.60;14.60;;;;;26.04;35.44;101140.19;2095874;28;45324;-63
2023/06/16 00:48:06;;;;;;;;;14.00;13.00;;;;;26.03;34.62;101135.72;2086747;28;46184;-64
2023/06/16 00:49:07;;;;;;;;;12.00;11.75;;;;;26.02;35.33;101136.72;2088231;28;45163;-63
2023/06/16 00:50:08;;;;;;;;;12.75;12.75;;;;;26.02;35.02;101136.72;2085605;28;46796;-62
2023/06/16 00:51:09;;;;;;;;;12.80;12.20;;;;;26.03;34.59;101137.56;2096586;28;45152;-63
2023/06/16 00:52:12;;;;;;;;;11.75;11.75;;;;;26.03;34.77;101138.44;2093973;28;45613;-64
2023/06/16 00:53:13;;;;;;;;;9.40;9.40;;;;;26.03;34.75;101134.84;2089103;28;46048;-63
2023/06/16 00:54:13;;;;;;;;;11.00;11.00;;;;;26.03;34.85;101140.28;2086965;28;45466;-64
2023/06/16 00:55:15;;;;;;;;;9.00;9.00;;;;;26.04;34.74;101139.31;2089183;28;45050;-64
2023/06/16 00:56:16;;;;;;;;;12.80;12.80;;;;;26.03;35.17;101137.56;2086892;28;46597;-63
2023/06/16 00:57:17;;;;;;;;;9.00;9.00;;;;;26.04;34.72;101147.47;2085646;28;46944;-64
2023/06/16 00:58:20;;;;;;;;;11.60;9.00;;;;;26.03;34.77;101140.28;2086123;28;47701;-63
2023/06/16 00:59:25;;;;;;;;;11.60;10.80;;;;;26.03;34.58;101137.56;2095812;28;45677;-62
2023/06/16 01:00:26;;;;;;;;;11.00;11.00;;;;;26.02;35.00;101138.56;2095703;28;46235;-64
2023/06/16 01:01:28;;;;;;;;;12.75;12.75;;;;;26.01;35.20;101136.84;2083035;28;46086;-62
2023/06/16 01:02:28;;;;;;;;;12.20;12.20;;;;;26.02;35.39;101144.00;2087345;28;46286;-64
2023/06/16 01:03:29;;;;;;;;;14.50;13.75;;;;;26.01;34.98;101143.13;2088474;28;46074;-63
2023/06/16 01:04:29;;;;;;;;;15.00;13.50;;;;;26.01;35.07;101147.72;2089303;28;45693;-64
2023/06/16 01:05:31;;;;;;;;;12.75;12.75;;;;;26.00;35.07;101144.13;2088837;28;45834;-62
2023/06/16 01:06:41;;;;;;;;;12.80;12.60;;;;;25.98;35.35;101139.81;2087908;28;45639;-63
2023/06/16 01:07:51;;;;;;;;;11.00;11.00;;;;;25.98;35.06;101142.53;2086941;28;45638;-64
2023/06/16 01:09:03;;;;;;;;;11.40;11.40;;;;;25.97;35.55;101144.38;2088336;28;46674;-62
2023/06/16 01:10:09;;;;;;;;;9.00;9.00;;;;;25.98;35.07;101145.25;2084867;28;46101;-62
2023/06/16 01:11:20;;;;;;;;;10.40;10.40;;;;;25.98;35.01;101143.38;2087502;28;45231;-63
2023/06/16 01:12:20;;;;;;;;;11.00;11.00;;;;;25.98;35.31;101147.97;2087624;28;45317;-63
2023/06/16 01:13:30;;;;;;;;;11.50;11.50;;;;;25.97;35.05;101140.78;2087564;28;46952;-63
2023/06/16 01:14:37;;;;;;;;;13.20;13.00;;;;;25.97;35.51;101146.25;2085088;28;46041;-63
2023/06/16 01:15:41;;;;;;;;;12.00;10.00;;;;;25.96;35.50;101144.50;2086941;28;46635;-63
2023/06/16 01:16:44;;;;;;;;;12.00;11.60;;;;;25.94;34.98;101147.34;2087771;28;47652;-63
2023/06/16 01:17:47;;;;;;;;;15.00;13.80;;;;;25.94;35.49;101139.19;2086836;28;46111;-64
2023/06/16 01:18:51;;;;;;;;;11.40;11.40;;;;;25.93;35.10;101142.03;2088279;28;46475;-65
2023/06/16 01:20:07;;;;;;;;;12.80;12.80;;;;;25.92;35.20;101143.91;2087135;28;45965;-63
2023/06/16 01:21:48;;;;;;;;;11.80;11.80;;;;;25.91;35.45;101142.13;2081614;28;46501;-64
2023/06/16 01:22:55;;;;;;;;;8.80;8.80;;;;;25.90;35.22;101137.69;2086838;28;46091;-62
2023/06/16 01:24:02;;;;;;;;;10.80;10.80;;;;;25.89;35.73;101141.38;2085602;28;47991;-63
2023/06/16 01:25:04;;;;;;;;;13.40;12.00;;;;;25.87;35.31;101135.22;2087673;28;45917;-63
2023/06/16 01:26:07;;;;;;;;;8.20;8.20;;;;;25.87;35.47;101140.66;2086428;28;45853;-63
2023/06/16 01:27:13;;;;;;;;;10.20;9.60;;;;;25.86;35.50;101138.94;2087265;28;45695;-61
2023/06/16 01:28:18;;;;;;;;;11.20;11.20;;;;;25.85;35.55;101137.19;2077994;28;45816;-65
2023/06/16 01:29:23;;;;;;;;;12.80;11.00;;;;;25.84;35.60;101142.75;2079701;28;45850;-62
2023/06/16 01:30:28;;;;;;;;;9.80;9.80;;;;;25.84;35.74;101140.03;2086644;28;46741;-63
2023/06/16 01:31:31;;;;;;;;;11.40;11.00;;;;;25.84;35.53;101138.19;2085878;28;45679;-64
2023/06/16 01:32:33;;;;;;;;;11.00;10.40;;;;;25.83;35.37;101133.72;2087486;28;46812;-61
2023/06/16 01:33:36;;;;;;;;;9.80;9.80;;;;;25.83;35.26;101141.03;2086451;28;46126;-62
2023/06/16 01:34:38;;;;;;;;;11.60;10.20;;;;;25.81;35.84;101141.16;2086944;28;46930;-62
2023/06/16 01:35:40;;;;;;;;;9.00;9.00;;;;;25.80;35.86;101133.97;2086503;28;46007;-62
2023/06/16 01:36:42;;;;;;;;;11.20;11.20;;;;;25.78;36.02;101136.78;2085784;28;45814;-63
2023/06/16 01:37:43;;;;;;;;;11.80;11.80;;;;;25.76;35.69;101133.34;2086635;28;47037;-62
2023/06/16 01:38:46;;;;;;;;;9.20;9.20;;;;;25.75;35.58;101131.59;2087522;28;45331;-62
2023/06/16 01:39:48;;;;;;;;;11.20;11.20;;;;;25.74;36.02;101140.75;2085788;28;46711;-64
2023/06/16 01:40:51;;;;;;;;;8.00;8.00;;;;;25.72;35.78;101133.72;2087892;28;46970;-63
2023/06/16 01:41:53;;;;;;;;;11.00;10.80;;;;;25.69;35.86;101125.81;2086492;28;46118;-64
2023/06/16 01:42:55;;;;;;;;;8.60;8.60;;;;;25.67;35.54;101136.78;2087618;28;45725;-63
2023/06/16 01:43:57;;;;;;;;;11.00;11.00;;;;;25.67;36.15;101131.34;2083765;28;46368;-64
2023/06/16 01:44:58;;;;;;;;;10.20;9.60;;;;;25.66;35.68;101126.84;2087516;28;45800;-63
2023/06/16 01:45:59;;;;;;;;;9.25;8.75;;;;;25.66;36.18;101131.44;2083424;28;46442;-61
2023/06/16 01:46:59;;;;;;;;;10.40;10.40;;;;;25.66;36.31;101128.69;2087096;28;48518;-64
2023/06/16 01:48:01;;;;;;;;;10.00;10.00;;;;;25.65;35.68;101133.28;2086382;28;45716;-63
2023/06/16 01:49:01;;;;;;;;;10.80;10.80;;;;;25.65;36.41;101125.13;2081810;28;46493;-62
2023/06/16 01:50:02;;;;;;;;;10.75;9.75;;;;;25.66;35.81;101124.13;2077944;28;45632;-62
2023/06/16 01:51:03;;;;;;;;;9.75;9.75;;;;;25.67;36.16;101125.03;2074823;28;46178;-62
2023/06/16 01:52:05;;;;;;;;;9.75;9.75;;;;;25.67;36.07;101134.06;2085940;28;45552;-64
2023/06/16 01:53:05;;;;;;;;;8.00;8.00;;;;;25.66;36.15;101134.16;2093327;28;45723;-63
2023/06/16 01:54:05;;;;;;;;;9.75;9.75;;;;;25.67;35.86;101130.47;2086194;28;45735;-63
2023/06/16 01:55:06;;;;;;;;;10.00;10.00;;;;;25.65;35.88;101130.56;2087689;28;45715;-63
2023/06/16 01:56:10;;;;;;;;;11.00;10.00;;;;;25.66;36.34;101120.56;2083189;28;46052;-63
2023/06/16 01:57:11;;;;;;;;;7.80;7.80;;;;;25.65;36.03;101133.28;2088115;28;46424;-63
2023/06/16 01:58:12;;;;;;;;;11.75;11.75;;;;;25.65;36.58;101135.13;2085604;28;45489;-64
2023/06/16 01:59:12;;;;;;;;;12.25;11.25;;;;;25.65;36.54;101137.84;2093665;28;46653;-62
2023/06/16 02:00:21;;;;;;;;;11.50;10.00;;;;;25.65;36.21;101138.72;2085543;28;48029;-62
2023/06/16 02:01:30;;;;;;;;;12.80;11.20;;;;;25.65;36.61;101135.13;2087413;28;45550;-63
2023/06/16 02:02:32;;;;;;;;;8.00;8.00;;;;;25.64;36.24;101128.81;2084970;28;45569;-64
2023/06/16 02:03:40;;;;;;;;;8.80;8.80;;;;;25.64;36.58;101125.25;2087832;28;46962;-62
2023/06/16 02:04:45;;;;;;;;;11.00;9.20;;;;;25.65;36.09;101132.41;2088370;28;46715;-62
2023/06/16 02:05:50;;;;;;;;;11.20;10.60;;;;;25.64;36.53;101128.81;2085081;28;45724;-64
2023/06/16 02:07:02;;;;;;;;;11.60;11.40;;;;;25.65;36.35;101130.56;2087200;28;46403;-63
2023/06/16 02:08:04;;;;;;;;;12.00;12.00;;;;;25.65;36.66;101132.41;2081114;28;46078;-63
2023/06/16 02:09:07;;;;;;;;;10.40;10.40;;;;;25.64;36.29;101130.69;2088364;28;45675;-63
2023/06/16 02:10:09;;;;;;;;;10.20;10.20;;;;;25.64;36.50;101131.53;2086364;28;45394;-63
2023/06/16 02:11:10;;;;;;;;;10.00;10.00;;;;;25.64;36.35;101128.81;2086227;28;46550;-64
2023/06/16 02:12:12;;;;;;;;;11.00;11.00;;;;;25.63;36.46;101123.53;2085194;28;45998;-62
2023/06/16 02:13:13;;;;;;;;;10.60;10.60;;;;;25.61;36.43;101130.94;2081769;28;47135;-63
2023/06/16 02:14:13;;;;;;;;;11.75;11.75;;;;;25.56;36.72;101125.00;2086555;28;46258;-63
2023/06/16 02:15:17;;;;;;;;;11.25;11.25;;;;;25.48;36.86;101128.31;2088042;28;46444;-64
2023/06/16 02:16:19;;;;;;;;;11.00;10.60;;;;;25.41;36.72;101124.31;2086804;28;46181;-63
2023/06/16 02:17:26;;;;;;;;;10.20;10.20;;;;;25.35;36.96;101124.81;2087616;28;46351;-63
2023/06/16 02:18:27;;;;;;;;;7.60;7.60;;;;;25.31;37.07;101123.31;2087249;28;46505;-63
2023/06/16 02:19:28;;;;;;;;;10.20;10.20;;;;;25.28;37.16;101126.25;2086974;28;46480;-63
2023/06/16 02:20:28;;;;;;;;;11.50;11.50;;;;;25.24;37.45;101129.19;2084470;28;45735;-64
2023/06/16 02:21:29;;;;;;;;;11.75;11.75;;;;;25.22;37.10;101130.31;2085855;28;45525;-63
2023/06/16 02:22:29;;;;;;;;;10.50;10.50;;;;;25.19;37.52;101128.69;2087139;28;46028;-63
2023/06/16 02:23:30;;;;;;;;;10.50;10.50;;;;;25.20;37.51;101129.56;2085730;28;45897;-64
2023/06/16 02:24:31;;;;;;;;;12.50;11.50;;;;;25.16;37.09;101130.78;2086030;28;46243;-63
2023/06/16 02:25:31;;;;;;;;;12.00;10.40;;;;;25.15;37.53;101127.19;2086750;28;45132;-63
2023/06/16 02:26:34;;;;;;;;;9.75;9.00;;;;;25.15;37.21;101132.63;2087684;28;45452;-64
2023/06/16 02:27:34;;;;;;;;;10.00;10.00;;;;;25.14;36.97;101128.16;2086711;28;45800;-62
2023/06/16 02:28:35;;;;;;;;;10.75;10.75;;;;;25.15;37.20;101131.75;2088743;28;46253;-63
2023/06/16 02:29:35;;;;;;;;;10.50;9.50;;;;;25.14;37.56;101130.88;2089839;28;45371;-63
2023/06/16 02:30:36;;;;;;;;;9.50;9.50;;;;;25.16;37.55;101131.66;2084357;28;45887;-64
2023/06/16 02:31:36;;;;;;;;;11.00;11.00;;;;;25.17;37.46;101135.25;2086165;28;46456;-62
2023/06/16 02:32:37;;;;;;;;;10.00;10.00;;;;;25.18;37.57;101131.53;2093489;28;45655;-63
2023/06/16 02:33:40;;;;;;;;;10.00;9.60;;;;;25.19;37.29;101128.69;2089133;28;45568;-63
2023/06/16 02:34:43;;;;;;;;;10.20;10.20;;;;;25.21;36.96;101139.44;2087645;28;45757;-62
2023/06/16 02:35:43;;;;;;;;;9.80;9.80;;;;;25.21;36.85;101134.88;2087033;28;45665;-63
2023/06/16 02:36:44;;;;;;;;;9.75;8.75;;;;;25.21;37.66;101132.16;2089514;28;45608;-64
2023/06/16 02:37:52;;;;;;;;;10.00;10.00;;;;;25.21;37.30;101132.16;2086326;28;45212;-63
2023/06/16 02:38:52;;;;;;;;;10.80;10.00;;;;;25.21;37.07;101125.88;2087122;28;45154;-63
2023/06/16 02:39:53;;;;;;;;;11.00;9.75;;;;;25.19;37.00;101125.13;2086529;28;46316;-64
2023/06/16 02:40:53;;;;;;;;;12.75;11.50;;;;;25.20;37.12;101130.44;2087959;28;46410;-63
2023/06/16 02:41:54;;;;;;;;;10.25;10.25;;;;;25.20;37.29;101129.56;2085374;28;45437;-62
2023/06/16 02:42:54;;;;;;;;;10.25;10.25;;;;;25.20;37.32;101132.28;2086944;28;46130;-64
2023/06/16 02:43:54;;;;;;;;;11.00;11.00;;;;;25.18;37.13;101132.41;2082974;28;46243;-63
2023/06/16 02:44:55;;;;;;;;;11.00;11.00;;;;;25.17;36.93;101127.09;2087562;28;45430;-63
2023/06/16 02:45:55;;;;;;;;;12.25;9.25;;;;;25.15;37.53;101129.91;2086348;28;46487;-62
2023/06/16 02:46:57;;;;;;;;;8.75;8.75;;;;;25.15;37.56;101129.91;2087288;28;46615;-62
2023/06/16 02:47:57;;;;;;;;;12.20;12.20;;;;;25.16;37.07;101130.78;2086066;28;48607;-63
2023/06/16 02:48:57;;;;;;;;;11.00;11.00;;;;;25.15;36.91;101126.31;2089632;28;45225;-63
2023/06/16 02:49:57;;;;;;;;;11.25;10.25;;;;;25.14;37.64;101124.59;2085756;28;46041;-63
2023/06/16 02:50:58;;;;;;;;;12.00;12.00;;;;;25.13;36.96;101128.28;2088097;28;45419;-64
2023/06/16 02:51:58;;;;;;;;;10.50;9.00;;;;;25.14;37.69;101135.44;2082834;28;45795;-62
2023/06/16 02:52:59;;;;;;;;;10.00;10.00;;;;;25.12;37.48;101132.84;2087662;28;45735;-62
2023/06/16 02:53:59;;;;;;;;;10.75;9.75;;;;;25.12;37.37;101126.56;2085855;28;45929;-63
2023/06/16 02:55:00;;;;;;;;;9.75;8.75;;;;;25.11;37.53;101131.13;2087424;28;47583;-64
2023/06/16 02:56:00;;;;;;;;;12.75;12.75;;;;;25.11;37.16;101128.41;2086014;28;47618;-63
2023/06/16 02:57:00;;;;;;;;;10.50;10.50;;;;;25.10;37.47;101126.69;2086699;28;46899;-64
2023/06/16 02:58:01;;;;;;;;;10.50;10.50;;;;;25.09;37.66;101124.94;2085420;28;45644;-65
2023/06/16 02:59:02;;;;;;;;;10.00;10.00;;;;;25.09;37.54;101126.81;2087837;28;45743;-63
2023/06/16 03:00:04;;;;;;;;;12.75;12.75;;;;;25.08;37.17;101127.78;2086500;28;46024;-64
2023/06/16 03:01:05;;;;;;;;;10.80;10.40;;;;;25.08;37.30;101130.50;2087754;28;46797;-64
2023/06/16 03:02:05;;;;;;;;;10.40;10.40;;;;;25.08;37.19;101127.78;2085144;28;47774;-63
2023/06/16 03:03:07;;;;;;;;;9.75;8.75;;;;;25.08;37.67;101131.38;2087788;28;46141;-63
2023/06/16 03:04:07;;;;;;;;;9.80;9.80;;;;;25.07;37.32;101128.78;2086176;28;45814;-61
2023/06/16 03:05:08;;;;;;;;;14.00;13.00;;;;;25.06;37.32;101127.91;2089658;28;45212;-63
2023/06/16 03:06:08;;;;;;;;;13.25;11.00;;;;;25.06;37.65;101130.63;2083192;28;45823;-62
2023/06/16 03:07:09;;;;;;;;;9.00;9.00;;;;;25.07;37.54;101128.78;2092693;28;48325;-64
2023/06/16 03:08:10;;;;;;;;;11.60;11.60;;;;;25.07;37.16;101129.63;2086792;28;46040;-63
2023/06/16 03:09:11;;;;;;;;;13.25;11.75;;;;;25.04;37.26;101127.16;2087619;28;46759;-64
2023/06/16 03:10:12;;;;;;;;;15.20;15.00;;;;;25.02;37.83;101122.81;2085497;28;46619;-64
2023/06/16 03:11:12;;;;;;;;;17.25;17.25;;;;;25.02;37.92;101122.81;2089221;28;45738;-62
2023/06/16 03:12:13;;;;;;;;;17.00;16.25;;;;;25.02;37.43;101128.22;2085058;28;45883;-63
2023/06/16 03:13:13;;;;;;;;;13.50;13.00;;;;;25.02;37.81;101130.94;2091696;28;45985;-64
2023/06/16 03:14:13;;;;;;;;;11.50;10.75;;;;;25.00;37.89;101122.88;2085873;28;46522;-62
2023/06/16 03:15:15;;;;;;;;;10.00;10.00;;;;;25.00;37.70;101128.31;2080557;28;45528;-62
2023/06/16 03:16:17;;;;;;;;;11.00;11.00;;;;;24.99;37.95;101129.31;2087562;28;45687;-63
2023/06/16 03:17:21;;;;;;;;;11.40;11.40;;;;;24.99;37.76;101125.72;2086918;28;46646;-61
2023/06/16 03:18:21;;;;;;;;;8.00;8.00;;;;;24.98;37.86;101124.00;2086951;28;46414;-64
2023/06/16 03:19:22;;;;;;;;;13.00;13.00;;;;;24.99;37.87;101123.00;2087790;28;46817;-63
2023/06/16 03:20:22;;;;;;;;;10.00;10.00;;;;;24.97;37.62;101125.84;2087686;28;46183;-64
2023/06/16 03:21:24;;;;;;;;;10.25;10.25;;;;;24.95;37.77;101122.38;2089393;28;45766;-63
2023/06/16 03:22:24;;;;;;;;;12.40;12.00;;;;;24.93;37.97;101124.34;2085159;28;45931;-64
2023/06/16 03:23:25;;;;;;;;;8.50;8.50;;;;;24.92;37.97;101128.91;2086821;28;46182;-63
2023/06/16 03:24:25;;;;;;;;;11.25;10.75;;;;;24.92;38.04;101125.34;2087016;28;48366;-64
2023/06/16 03:25:26;;;;;;;;;12.25;11.50;;;;;24.92;38.00;101128.06;2086132;28;45685;-64
2023/06/16 03:26:27;;;;;;;;;14.40;13.60;;;;;24.93;38.16;101125.22;2089519;28;48237;-64
2023/06/16 03:27:28;;;;;;;;;13.50;13.50;;;;;24.92;38.10;101128.91;2085239;28;46221;-63
2023/06/16 03:28:28;;;;;;;;;11.00;11.00;;;;;24.92;38.02;101123.50;2084995;28;46852;-64
2023/06/16 03:29:28;;;;;;;;;12.00;12.00;;;;;24.93;38.35;101127.06;2090078;28;45584;-63
2023/06/16 03:30:28;;;;;;;;;12.00;12.00;;;;;24.92;38.22;101123.50;2088201;28;46663;-64
2023/06/16 03:31:30;;;;;;;;;11.75;11.75;;;;;24.93;37.99;101124.34;2090914;28;46058;-63
2023/06/16 03:32:30;;;;;;;;;11.00;9.80;;;;;24.93;38.21;101132.50;2089613;28;45757;-62
2023/06/16 03:33:31;;;;;;;;;11.25;11.25;;;;;24.92;38.18;101131.63;2087220;28;46366;-63
2023/06/16 03:34:31;;;;;;;;;8.00;8.00;;;;;24.91;38.30;101131.75;2088120;28;46468;-61
2023/06/16 03:35:32;;;;;;;;;12.00;12.00;;;;;24.90;38.51;101130.88;2094597;28;44995;-65
2023/06/16 03:36:36;;;;;;;;;13.50;12.75;;;;;24.89;38.23;101133.69;2095657;28;45856;-62
2023/06/16 03:37:36;;;;;;;;;10.40;10.40;;;;;24.89;38.15;101139.13;2083113;28;47501;-62
2023/06/16 03:38:36;;;;;;;;;11.50;11.50;;;;;24.87;38.27;101130.22;2088234;28;46776;-65
2023/06/16 03:39:37;;;;;;;;;12.00;12.00;;;;;24.87;37.98;101133.81;2085592;28;45683;-63
2023/06/16 03:40:38;;;;;;;;;10.75;10.75;;;;;24.86;38.45;101133.94;2089512;28;45620;-64
2023/06/16 03:41:38;;;;;;;;;13.00;12.50;;;;;24.85;38.23;101137.63;2094680;28;45205;-63
2023/06/16 03:42:38;;;;;;;;;12.75;11.75;;;;;24.83;38.04;101137.75;2086677;28;45781;-62
2023/06/16 03:43:39;;;;;;;;;12.00;12.00;;;;;24.84;38.43;101135.88;2086497;28;45025;-64
2023/06/16 03:44:39;;;;;;;;;10.75;10.75;;;;;24.82;38.46;101141.44;2098196;28;45791;-63
2023/06/16 03:45:40;;;;;;;;;12.50;12.00;;;;;24.80;38.58;101132.56;2094123;28;45767;-64
2023/06/16 03:46:40;;;;;;;;;13.75;11.75;;;;;24.80;38.64;101140.69;2094926;28;46488;-63
2023/06/16 03:47:41;;;;;;;;;11.25;11.25;;;;;24.79;38.92;101136.25;2096087;28;46718;-63
2023/06/16 03:48:41;;;;;;;;;12.25;11.25;;;;;24.79;38.21;101136.25;2097321;28;45869;-64
2023/06/16 03:49:42;;;;;;;;;10.25;10.00;;;;;24.78;38.45;101129.09;2093546;28;46304;-64
2023/06/16 03:50:42;;;;;;;;;12.25;12.25;;;;;24.80;38.88;101135.25;2095213;28;45144;-64
2023/06/16 03:51:43;;;;;;;;;11.00;11.00;;;;;24.80;38.56;101131.69;2094859;28;46104;-64
2023/06/16 03:52:44;;;;;;;;;10.60;10.60;;;;;24.78;38.79;101131.81;2097016;28;46200;-62
2023/06/16 03:53:44;;;;;;;;;12.25;12.25;;;;;24.79;38.40;101136.25;2093820;28;45928;-64
2023/06/16 03:54:45;;;;;;;;;12.50;12.50;;;;;24.78;38.79;101133.66;2095922;28;46012;-63
2023/06/16 03:55:47;;;;;;;;;12.00;10.00;;;;;24.77;38.94;101134.59;2094016;28;46548;-63
2023/06/16 03:56:47;;;;;;;;;14.00;14.00;;;;;24.77;38.93;101131.88;2097269;28;48505;-63
2023/06/16 03:57:47;;;;;;;;;11.75;11.75;;;;;24.76;38.69;101136.44;2094560;28;45482;-63
2023/06/16 03:58:48;;;;;;;;;13.50;12.50;;;;;24.75;38.42;101132.00;2089026;28;46053;-63
2023/06/16 03:59:48;;;;;;;;;10.75;10.25;;;;;24.75;38.49;101136.56;2085086;28;46054;-63
2023/06/16 04:00:49;;;;;;;;;13.75;12.25;;;;;24.74;38.86;101130.28;2096219;28;45745;-64
2023/06/16 04:01:50;;;;;;;;;12.25;12.25;;;;;24.73;38.52;101133.09;2094321;28;45549;-63
2023/06/16 04:02:50;;;;;;;;;15.00;14.60;;;;;24.72;38.83;101132.25;2095383;28;45656;-63
2023/06/16 04:03:51;;;;;;;;;13.50;12.00;;;;;24.71;38.79;101137.78;2094699;28;45041;-63
2023/06/16 04:04:52;;;;;;;;;12.25;12.00;;;;;24.69;38.75;101135.19;2097654;28;45481;-64
2023/06/16 04:05:53;;;;;;;;;15.25;14.75;;;;;24.68;39.09;101135.31;2093530;28;46038;-64
2023/06/16 04:06:54;;;;;;;;;12.60;12.60;;;;;24.67;39.26;101134.44;2098085;28;46947;-62
2023/06/16 04:07:54;;;;;;;;;13.50;13.00;;;;;24.67;38.97;101139.88;2094157;28;46272;-64
2023/06/16 04:08:56;;;;;;;;;11.50;11.50;;;;;24.65;39.00;101140.00;2095541;28;46375;-64
2023/06/16 04:09:57;;;;;;;;;12.20;11.80;;;;;24.64;38.85;101138.22;2094601;28;45781;-64
2023/06/16 04:10:58;;;;;;;;;9.75;9.50;;;;;24.64;39.15;101140.06;2086853;28;45799;-64
2023/06/16 04:11:58;;;;;;;;;10.20;10.20;;;;;24.62;39.02;101131.19;2086546;28;46409;-62
2023/06/16 04:12:59;;;;;;;;;15.25;13.75;;;;;24.61;38.77;101127.59;2095096;28;45786;-63
2023/06/16 04:13:59;;;;;;;;;13.00;12.75;;;;;24.60;39.03;101136.72;2086968;28;47067;-62
2023/06/16 04:15:00;;;;;;;;;12.00;12.00;;;;;24.59;39.20;101140.44;2089202;28;45529;-64
2023/06/16 04:16:00;;;;;;;;;11.50;10.25;;;;;24.57;39.18;101141.53;2094302;28;46152;-64
2023/06/16 04:17:01;;;;;;;;;12.25;11.75;;;;;24.57;39.31;101138.81;2088405;28;45586;-64
2023/06/16 04:18:01;;;;;;;;;12.00;12.00;;;;;24.56;39.22;101142.50;2086715;28;46678;-63
2023/06/16 04:19:03;;;;;;;;;14.25;13.50;;;;;24.56;39.02;101134.38;2088883;28;46408;-61
2023/06/16 04:20:09;;;;;;;;;12.00;11.80;;;;;24.55;39.54;101144.34;2087708;28;45929;-64
2023/06/16 04:21:09;;;;;;;;;10.80;10.80;;;;;24.55;39.21;101141.63;2088989;28;48990;-62
2023/06/16 04:22:10;;;;;;;;;11.50;11.50;;;;;24.55;39.09;101141.63;2086169;28;45882;-62
2023/06/16 04:23:10;;;;;;;;;9.75;9.00;;;;;24.56;39.37;101142.50;2088561;28;46356;-63
2023/06/16 04:24:11;;;;;;;;;13.00;12.50;;;;;24.57;39.60;101146.94;2084647;28;46456;-64
2023/06/16 04:25:12;;;;;;;;;11.75;11.75;;;;;24.58;39.23;101148.69;2088015;28;46681;-62
2023/06/16 04:26:13;;;;;;;;;12.25;12.25;;;;;24.58;39.44;101143.25;2087165;28;45524;-63
2023/06/16 04:27:13;;;;;;;;;15.50;14.75;;;;;24.57;39.38;101147.81;2089080;28;45771;-63
2023/06/16 04:28:14;;;;;;;;;12.00;12.00;;;;;24.57;39.51;101142.38;2087080;28;46551;-63
2023/06/16 04:29:14;;;;;;;;;7.40;7.40;;;;;24.56;39.16;101148.78;2089633;28;45855;-62
2023/06/16 04:30:22;;;;;;;;;12.25;12.25;;;;;24.54;39.70;101149.91;2086440;28;45687;-62
2023/06/16 04:31:22;;;;;;;;;14.20;14.20;;;;;24.51;39.35;101153.69;2087603;28;46167;-61
2023/06/16 04:32:22;;;;;;;;;12.00;11.50;;;;;24.51;39.62;101148.25;2087155;28;46443;-61
2023/06/16 04:33:23;;;;;;;;;13.75;12.75;;;;;24.50;39.60;101143.81;2088186;28;45520;-63
2023/06/16 04:34:23;;;;;;;;;12.25;12.00;;;;;24.51;39.20;101144.66;2087331;28;46144;-62
2023/06/16 04:35:29;;;;;;;;;15.00;14.75;;;;;24.51;39.54;101150.09;2087739;28;45727;-63
2023/06/16 04:36:30;;;;;;;;;15.40;15.40;;;;;24.50;39.26;101153.78;2088218;28;46485;-62
2023/06/16 04:37:32;;;;;;;;;13.60;11.80;;;;;24.51;39.38;101152.81;2087197;28;46124;-62
2023/06/16 04:38:33;;;;;;;;;14.20;14.20;;;;;24.51;39.28;101152.81;2085663;28;46294;-63
2023/06/16 04:39:33;;;;;;;;;14.75;13.75;;;;;24.51;39.63;101152.81;2086386;28;46315;-63
2023/06/16 04:40:36;;;;;;;;;12.50;12.50;;;;;24.51;39.83;101152.81;2088057;28;46012;-63
2023/06/16 04:41:36;;;;;;;;;13.00;13.00;;;;;24.50;39.35;101151.94;2086949;28;45250;-64